地図

経路データ

SID SEASON NUMBER BASIN SUBBASIN NAME ISO_TIME NATURE LAT LON WMO_WIND WMO_PRES WMO_AGENCY TRACK_TYPE DIST2LAND LANDFALL IFLAG USA_AGENCY USA_ATCF_ID USA_LAT USA_LON USA_RECORD USA_STATUS USA_WIND USA_PRES USA_SSHS USA_R34_NE USA_R34_SE USA_R34_SW USA_R34_NW USA_R50_NE USA_R50_SE USA_R50_SW USA_R50_NW USA_R64_NE USA_R64_SE USA_R64_SW USA_R64_NW USA_POCI USA_ROCI USA_RMW USA_EYE TOKYO_LAT TOKYO_LON TOKYO_GRADE TOKYO_WIND TOKYO_PRES TOKYO_R50_DIR TOKYO_R50_LONG TOKYO_R50_SHORT TOKYO_R30_DIR TOKYO_R30_LONG TOKYO_R30_SHORT TOKYO_LAND CMA_LAT CMA_LON CMA_CAT CMA_WIND CMA_PRES HKO_LAT HKO_LON HKO_CAT HKO_WIND HKO_PRES NEWDELHI_LAT NEWDELHI_LON NEWDELHI_GRADE NEWDELHI_WIND NEWDELHI_PRES NEWDELHI_CI NEWDELHI_DP NEWDELHI_POCI REUNION_LAT REUNION_LON REUNION_TYPE REUNION_WIND REUNION_PRES REUNION_TNUM REUNION_CI REUNION_RMW REUNION_R34_NE REUNION_R34_SE REUNION_R34_SW REUNION_R34_NW REUNION_R50_NE REUNION_R50_SE REUNION_R50_SW REUNION_R50_NW REUNION_R64_NE REUNION_R64_SE REUNION_R64_SW REUNION_R64_NW BOM_LAT BOM_LON BOM_TYPE BOM_WIND BOM_PRES BOM_TNUM BOM_CI BOM_RMW BOM_R34_NE BOM_R34_SE BOM_R34_SW BOM_R34_NW BOM_R50_NE BOM_R50_SE BOM_R50_SW BOM_R50_NW BOM_R64_NE BOM_R64_SE BOM_R64_SW BOM_R64_NW BOM_ROCI BOM_POCI BOM_EYE BOM_POS_METHOD BOM_PRES_METHOD NADI_LAT NADI_LON NADI_CAT NADI_WIND NADI_PRES WELLINGTON_LAT WELLINGTON_LON WELLINGTON_WIND WELLINGTON_PRES DS824_LAT DS824_LON DS824_STAGE DS824_WIND DS824_PRES TD9636_LAT TD9636_LON TD9636_STAGE TD9636_WIND TD9636_PRES TD9635_LAT TD9635_LON TD9635_WIND TD9635_PRES TD9635_ROCI NEUMANN_LAT NEUMANN_LON NEUMANN_CLASS NEUMANN_WIND NEUMANN_PRES MLC_LAT MLC_LON MLC_CLASS MLC_WIND MLC_PRES USA_GUST BOM_GUST BOM_GUST_PER REUNION_GUST REUNION_GUST_PER USA_SEAHGT USA_SEARAD_NE USA_SEARAD_SE USA_SEARAD_SW USA_SEARAD_NW STORM_SPEED STORM_DIR
1942259N13301 1942 50 NA NA NOT_NAMED 1942-09-15 18:00:00 TS 12.5000 -58.8000 35 hurdat_atl main 313 286 O_____________ hurdat_atl AL051942 12.5000 -58.8000 TS 35 0 19 296
1942259N13301 1942 50 NA CS NOT_NAMED 1942-09-15 21:00:00 TS 12.9056 -59.6595 main 284 282 P_____________ AL051942 12.9056 -59.6595 TS 35 0 18 296
1942259N13301 1942 50 NA CS NOT_NAMED 1942-09-16 00:00:00 TS 13.3000 -60.5000 35 hurdat_atl main 296 294 O_____________ hurdat_atl AL051942 13.3000 -60.5000 TS 35 0 18 296
1942259N13301 1942 50 NA CS NOT_NAMED 1942-09-16 03:00:00 TS 13.6722 -61.3077 main 335 335 P_____________ AL051942 13.6722 -61.3077 TS 35 0 17 294
1942259N13301 1942 50 NA CS NOT_NAMED 1942-09-16 06:00:00 TS 14.0000 -62.1000 35 hurdat_atl main 369 369 O_____________ hurdat_atl AL051942 14.0000 -62.1000 TS 35 0 17 291
1942259N13301 1942 50 NA CS NOT_NAMED 1942-09-16 09:00:00 TS 14.2722 -62.8928 main 403 403 P_____________ AL051942 14.2722 -62.8928 TS 37 0 16 288
1942259N13301 1942 50 NA CS NOT_NAMED 1942-09-16 12:00:00 TS 14.5000 -63.7000 40 hurdat_atl main 430 394 O_____________ hurdat_atl AL051942 14.5000 -63.7000 TS 40 0 17 285
1942259N13301 1942 50 NA CS NOT_NAMED 1942-09-16 15:00:00 TS 14.7073 -64.5427 main 394 346 P_____________ AL051942 14.7073 -64.5427 TS 40 0 17 284
1942259N13301 1942 50 NA CS NOT_NAMED 1942-09-16 18:00:00 TS 14.9000 -65.4000 40 hurdat_atl main 346 313 O_____________ hurdat_atl AL051942 14.9000 -65.4000 TS 40 0 17 283
1942259N13301 1942 50 NA CS NOT_NAMED 1942-09-16 21:00:00 TS 15.0998 -66.2576 main 313 290 P_____________ AL051942 15.0998 -66.2576 TS 40 0 17 284
1942259N13301 1942 50 NA CS NOT_NAMED 1942-09-17 00:00:00 TS 15.3000 -67.1000 40 hurdat_atl main 291 273 O_____________ hurdat_atl AL051942 15.3000 -67.1000 TS 40 0 16 284
1942259N13301 1942 50 NA CS NOT_NAMED 1942-09-17 03:00:00 TS 15.4996 -67.9077 main 278 274 P_____________ AL051942 15.4996 -67.9077 TS 42 0 16 285
1942259N13301 1942 50 NA CS NOT_NAMED 1942-09-17 06:00:00 TS 15.7000 -68.7000 45 hurdat_atl main 279 262 O_____________ hurdat_atl AL051942 15.7000 -68.7000 TS 45 0 16 285
1942259N13301 1942 50 NA CS NOT_NAMED 1942-09-17 09:00:00 TS 15.9147 -69.5000 main 267 204 P_____________ AL051942 15.9147 -69.5000 TS 45 0 16 285
1942259N13301 1942 50 NA CS NOT_NAMED 1942-09-17 12:00:00 TS 16.1000 -70.3000 45 hurdat_atl main 204 159 O_____________ hurdat_atl AL051942 16.1000 -70.3000 TS 45 0 16 281
1942259N13301 1942 50 NA CS NOT_NAMED 1942-09-17 15:00:00 TS 16.2224 -71.1151 main 159 145 P_____________ AL051942 16.2224 -71.1151 TS 45 0 16 277
1942259N13301 1942 50 NA CS NOT_NAMED 1942-09-17 18:00:00 TS 16.3000 -71.9000 45 hurdat_atl main 154 154 O_____________ hurdat_atl AL051942 16.3000 -71.9000 TS 45 0 15 275
1942259N13301 1942 50 NA CS NOT_NAMED 1942-09-17 21:00:00 TS 16.3573 -72.6301 main 185 185 P_____________ AL051942 16.3573 -72.6301 TS 45 0 13 274
1942259N13301 1942 50 NA CS NOT_NAMED 1942-09-18 00:00:00 TS 16.4000 -73.3000 45 hurdat_atl main 186 167 O_____________ hurdat_atl AL051942 16.4000 -73.3000 TS 45 0 13 275
1942259N13301 1942 50 NA CS NOT_NAMED 1942-09-18 03:00:00 TS 16.4573 -73.9300 main 167 167 P_____________ AL051942 16.4573 -73.9300 TS 45 0 12 275
1942259N13301 1942 50 NA CS NOT_NAMED 1942-09-18 06:00:00 TS 16.5000 -74.5000 45 hurdat_atl main 179 179 O_____________ hurdat_atl AL051942 16.5000 -74.5000 TS 45 0 11 273
1942259N13301 1942 50 NA CS NOT_NAMED 1942-09-18 09:00:00 TS 16.5074 -75.0301 main 201 173 P_____________ AL051942 16.5074 -75.0301 TS 45 0 10 270
1942259N13301 1942 50 NA CS NOT_NAMED 1942-09-18 12:00:00 TS 16.5000 -75.5000 45 hurdat_atl main 173 159 O_____________ hurdat_atl AL051942 16.5000 -75.5000 TS 45 0 8 269
1942259N13301 1942 50 NA CS NOT_NAMED 1942-09-18 15:00:00 TS 16.4998 -75.9150 main 159 156 P_____________ AL051942 16.4998 -75.9150 TS 45 0 8 270
1942259N13301 1942 50 NA CS NOT_NAMED 1942-09-18 18:00:00 TS 16.5000 -76.3000 45 hurdat_atl main 156 144 O_____________ hurdat_atl AL051942 16.5000 -76.3000 TS 45 0 8 270
1942259N13301 1942 50 NA CS NOT_NAMED 1942-09-18 21:00:00 TS 16.4999 -76.7000 main 144 134 P_____________ AL051942 16.4999 -76.7000 TS 45 0 8 270
1942259N13301 1942 50 NA CS NOT_NAMED 1942-09-19 00:00:00 TS 16.5000 -77.1000 45 hurdat_atl main 134 134 O_____________ hurdat_atl AL051942 16.5000 -77.1000 TS 45 0 8 270
1942259N13301 1942 50 NA CS NOT_NAMED 1942-09-19 03:00:00 TS 16.4999 -77.5000 main 138 138 P_____________ AL051942 16.4999 -77.5000 TS 45 0 8 270
1942259N13301 1942 50 NA CS NOT_NAMED 1942-09-19 06:00:00 TS 16.5000 -77.9000 45 hurdat_atl main 153 153 O_____________ hurdat_atl AL051942 16.5000 -77.9000 TS 45 0 8 270
1942259N13301 1942 50 NA CS NOT_NAMED 1942-09-19 09:00:00 TS 16.5000 -78.3075 main 169 169 P_____________ AL051942 16.5000 -78.3075 TS 45 0 8 270
1942259N13301 1942 50 NA CS NOT_NAMED 1942-09-19 12:00:00 TS 16.5000 -78.7000 45 hurdat_atl main 189 189 O_____________ hurdat_atl AL051942 16.5000 -78.7000 TS 45 0 7 270
1942259N13301 1942 50 NA CS NOT_NAMED 1942-09-19 15:00:00 TS 16.4999 -79.0500 main 200 204 P_____________ AL051942 16.4999 -79.0500 TS 45 0 7 270
1942259N13301 1942 50 NA CS NOT_NAMED 1942-09-19 18:00:00 TS 16.5000 -79.4000 45 hurdat_atl main 217 217 O_____________ hurdat_atl AL051942 16.5000 -79.4000 TS 45 0 7 269
1942259N13301 1942 50 NA CS NOT_NAMED 1942-09-19 21:00:00 TS 16.4925 -79.7925 main 241 241 P_____________ AL051942 16.4925 -79.7925 TS 45 0 8 270
1942259N13301 1942 50 NA CS NOT_NAMED 1942-09-20 00:00:00 TS 16.5000 -80.2000 45 hurdat_atl main 269 269 O_____________ hurdat_atl AL051942 16.5000 -80.2000 TS 45 0 8 274
1942259N13301 1942 50 NA CS NOT_NAMED 1942-09-20 03:00:00 TS 16.5424 -80.6000 main 301 287 P_____________ AL051942 16.5424 -80.6000 TS 45 0 8 277
1942259N13301 1942 50 NA CS NOT_NAMED 1942-09-20 06:00:00 TS 16.6000 -81.0000 45 hurdat_atl main 287 255 O_____________ hurdat_atl AL051942 16.6000 -81.0000 TS 45 0 8 278
1942259N13301 1942 50 NA CS NOT_NAMED 1942-09-20 09:00:00 TS 16.6499 -81.4000 main 255 231 P_____________ AL051942 16.6499 -81.4000 TS 45 0 8 277
1942259N13301 1942 50 NA CS NOT_NAMED 1942-09-20 12:00:00 TS 16.7000 -81.8000 45 hurdat_atl main 231 209 O_____________ hurdat_atl AL051942 16.7000 -81.8000 TS 45 0 8 278
1942259N13301 1942 50 NA CS NOT_NAMED 1942-09-20 15:00:00 TS 16.7574 -82.2000 main 211 188 P_____________ AL051942 16.7574 -82.2000 TS 45 0 8 277
1942259N13301 1942 50 NA CS NOT_NAMED 1942-09-20 18:00:00 TS 16.8000 -82.6000 45 hurdat_atl main 188 171 O_____________ hurdat_atl AL051942 16.8000 -82.6000 TS 45 0 8 274
1942259N13301 1942 50 NA CS NOT_NAMED 1942-09-20 21:00:00 TS 16.8074 -83.0000 main 171 147 P_____________ AL051942 16.8074 -83.0000 TS 45 0 8 270
1942259N13301 1942 50 NA CS NOT_NAMED 1942-09-21 00:00:00 TS 16.8000 -83.4000 45 hurdat_atl main 147 123 O_____________ hurdat_atl AL051942 16.8000 -83.4000 TS 45 0 8 269
1942259N13301 1942 50 NA CS NOT_NAMED 1942-09-21 03:00:00 TS 16.7999 -83.8000 main 123 112 P_____________ AL051942 16.7999 -83.8000 TS 42 0 8 270
1942259N13301 1942 50 NA CS NOT_NAMED 1942-09-21 06:00:00 TS 16.8000 -84.2000 40 hurdat_atl main 112 101 O_____________ hurdat_atl AL051942 16.8000 -84.2000 TS 40 0 8 270
1942259N13301 1942 50 NA CS NOT_NAMED 1942-09-21 09:00:00 TS 16.7999 -84.6000 main 101 100 P_____________ AL051942 16.7999 -84.6000 TS 40 0 8 270
1942259N13301 1942 50 NA CS NOT_NAMED 1942-09-21 12:00:00 TS 16.8000 -85.0000 40 hurdat_atl main 100 100 O_____________ hurdat_atl AL051942 16.8000 -85.0000 TS 40 0 8 270
1942259N13301 1942 50 NA CS NOT_NAMED 1942-09-21 15:00:00 TS 16.7999 -85.4000 main 100 100 P_____________ AL051942 16.7999 -85.4000 TS 40 0 8 270
1942259N13301 1942 50 NA CS NOT_NAMED 1942-09-21 18:00:00 TS 16.8000 -85.8000 40 hurdat_atl main 100 100 O_____________ hurdat_atl AL051942 16.8000 -85.8000 TS 40 0 8 270
1942259N13301 1942 50 NA CS NOT_NAMED 1942-09-21 21:00:00 TS 16.8000 -86.2075 main 105 105 P_____________ AL051942 16.8000 -86.2075 TS 40 0 8 270
1942259N13301 1942 50 NA CS NOT_NAMED 1942-09-22 00:00:00 TS 16.8000 -86.6000 40 hurdat_atl main 113 111 O_____________ hurdat_atl AL051942 16.8000 -86.6000 TS 40 0 7 270
1942259N13301 1942 50 NA CS NOT_NAMED 1942-09-22 03:00:00 TS 16.7999 -86.9575 main 111 98 P_____________ AL051942 16.7999 -86.9575 TS 40 0 7 270
1942259N13301 1942 50 NA CS NOT_NAMED 1942-09-22 06:00:00 TS 16.8000 -87.3000 40 hurdat_atl main 98 67 O_____________ hurdat_atl AL051942 16.8000 -87.3000 TS 40 0 7 270
1942259N13301 1942 50 NA CS NOT_NAMED 1942-09-22 09:00:00 TS 16.7999 -87.6500 main 67 30 P_____________ AL051942 16.7999 -87.6500 TS 37 0 7 270
1942259N13301 1942 50 NA CS NOT_NAMED 1942-09-22 12:00:00 TS 16.8000 -88.0000 35 hurdat_atl main 30 0 O_____________ hurdat_atl AL051942 16.8000 -88.0000 TS 35 0 7 270
1942259N13301 1942 50 NA CS NOT_NAMED 1942-09-22 15:00:00 TS 16.7999 -88.3500 main 0 0 P_____________ AL051942 16.7999 -88.3500 TS 32 -1 7 270
1942259N13301 1942 50 NA NA NOT_NAMED 1942-09-22 18:00:00 TS 16.8000 -88.7000 30 hurdat_atl main 0 0 O_____________ hurdat_atl AL051942 16.8000 -88.7000 TD 30 -1 7 270
1942259N13301 1942 50 NA NA NOT_NAMED 1942-09-22 21:00:00 TS 16.7999 -89.0425 main 0 0 P_____________ AL051942 16.7999 -89.0425 TD 30 -1 7 270
1942259N13301 1942 50 NA NA NOT_NAMED 1942-09-23 00:00:00 TS 16.8000 -89.4000 30 hurdat_atl main 0 0 O_____________ hurdat_atl AL051942 16.8000 -89.4000 TD 30 -1 7 270
1942259N13301 1942 50 NA NA NOT_NAMED 1942-09-23 03:00:00 TS 16.8000 -89.7925 main 0 0 P_____________ AL051942 16.8000 -89.7925 TD 27 -1 8 270
1942259N13301 1942 50 NA NA NOT_NAMED 1942-09-23 06:00:00 TS 16.8000 -90.2000 25 hurdat_atl main 0 0 O_____________ hurdat_atl AL051942 16.8000 -90.2000 TD 25 -1 8 270
1942259N13301 1942 50 NA NA NOT_NAMED 1942-09-23 09:00:00 TS 16.8001 -90.6025 main 0 0 P_____________ AL051942 16.8001 -90.6025 TD 25 -1 8 270
1942259N13301 1942 50 NA NA NOT_NAMED 1942-09-23 12:00:00 TS 16.8000 -91.0000 25 hurdat_atl main 0 O_____________ hurdat_atl AL051942 16.8000 -91.0000 TD 25 -1 8 270

IBTrACS Databaseについて

本データベースは、米国NOAAが公開する1842年以降の世界の熱帯低気圧のベストトラックデータアーカイブInternational Best Track Archive for Climate Stewardship (IBTrACS)を、ウェブで閲覧しやすい形式に変換したものです。

最終更新日:2021-12-06